createdAt,value
2024-03-25T00:00:12.600Z,55.18
2024-03-25T00:02:40.074Z,55.59
2024-03-25T00:05:10.286Z,56.05
2024-03-25T00:07:40.507Z,56.45
2024-03-25T00:10:09.410Z,56.79
2024-03-25T00:12:36.925Z,57.44
2024-03-25T00:15:04.377Z,57.66
2024-03-25T00:17:31.970Z,56.34
2024-03-25T00:19:58.889Z,55.67
2024-03-25T00:22:28.724Z,55.67
2024-03-25T00:24:55.745Z,56.34
2024-03-25T00:27:22.626Z,56.54
2024-03-25T00:29:49.562Z,56.95
2024-03-25T00:32:16.382Z,57.84
2024-03-25T00:34:43.233Z,57.57
2024-03-25T00:37:10.188Z,56.51
2024-03-25T00:39:38.891Z,56.13
2024-03-25T00:42:07.228Z,55.98
2024-03-25T00:44:34.087Z,56.55
2024-03-25T00:47:00.936Z,56.62
2024-03-25T00:49:28.018Z,57.35
2024-03-25T00:51:54.944Z,58.18
2024-03-25T00:54:21.677Z,57.91
2024-03-25T00:56:48.683Z,56.69
2024-03-25T00:59:15.553Z,55.94
2024-03-25T01:01:42.700Z,55.95
2024-03-25T01:04:09.540Z,56.66
2024-03-25T01:06:36.565Z,56.88
2024-03-25T01:09:04.898Z,57.35
2024-03-25T01:11:32.006Z,58.19
2024-03-25T01:13:58.998Z,58.08
2024-03-25T01:16:26.016Z,56.95
2024-03-25T01:18:52.867Z,56.39
2024-03-25T01:21:20.334Z,56.55
2024-03-25T01:23:47.118Z,56.73
2024-03-25T01:26:14.002Z,56.59
2024-03-25T01:28:41.032Z,56.42
2024-03-25T01:31:07.974Z,55.94
2024-03-25T01:33:35.005Z,56.87
2024-03-25T01:36:02.018Z,57.34
2024-03-25T01:38:29.436Z,56.34
2024-03-25T01:40:57.943Z,55.54
2024-03-25T01:43:24.888Z,55.86
2024-03-25T01:45:52.750Z,55.95
2024-03-25T01:48:19.632Z,56.49
2024-03-25T01:50:46.584Z,56.79
2024-03-25T01:53:13.536Z,57.71
2024-03-25T01:55:40.820Z,57.83
2024-03-25T01:58:08.996Z,56.61
2024-03-25T02:00:36.006Z,55.69
2024-03-25T02:03:03.791Z,55.96
2024-03-25T02:05:30.729Z,56.28
2024-03-25T02:07:57.585Z,56.77
2024-03-25T02:10:24.498Z,57.50
2024-03-25T02:12:51.493Z,58.64
2024-03-25T02:15:18.423Z,58.59
2024-03-25T02:17:45.496Z,57.34
2024-03-25T02:20:14.046Z,56.95
2024-03-25T02:22:41.107Z,57.08
2024-03-25T02:25:11.929Z,57.55
2024-03-25T02:27:39.091Z,57.91
2024-03-25T02:30:11.756Z,58.50
2024-03-25T02:32:38.982Z,58.51
2024-03-25T02:35:11.341Z,59.17
2024-03-25T02:37:39.046Z,59.50
2024-03-25T02:40:12.658Z,58.02
2024-03-25T02:42:41.001Z,57.46
2024-03-25T02:45:08.577Z,57.38
2024-03-25T02:47:36.013Z,57.73
2024-03-25T02:50:03.075Z,58.36
2024-03-25T02:52:30.000Z,58.93
2024-03-25T02:54:56.887Z,59.55
2024-03-25T02:57:23.743Z,59.58
2024-03-25T02:59:50.757Z,58.46
2024-03-25T03:02:17.935Z,57.72
2024-03-25T03:04:44.826Z,57.79
2024-03-25T03:07:11.779Z,57.87
2024-03-25T03:09:39.035Z,57.84
2024-03-25T03:12:06.235Z,58.33
2024-03-25T03:14:33.259Z,58.70
2024-03-25T03:17:00.172Z,59.05
2024-03-25T03:19:27.279Z,58.76
2024-03-25T03:21:54.557Z,58.29
2024-03-25T03:24:21.553Z,58.12
2024-03-25T03:26:48.379Z,58.28
2024-03-25T03:29:15.322Z,58.74
2024-03-25T03:31:42.085Z,59.14
2024-03-25T03:34:08.943Z,60.03
2024-03-25T03:36:35.741Z,59.90
2024-03-25T03:39:04.562Z,58.57
2024-03-25T03:41:31.667Z,57.90
2024-03-25T03:43:58.656Z,57.78
2024-03-25T03:46:25.791Z,58.16
2024-03-25T03:48:52.829Z,58.84
2024-03-25T03:51:19.675Z,59.78
2024-03-25T03:53:46.514Z,59.86
2024-03-25T03:56:13.455Z,58.77
2024-03-25T03:58:40.400Z,57.78
2024-03-25T04:01:15.513Z,58.26
2024-03-25T04:03:42.471Z,58.81
2024-03-25T04:06:12.883Z,58.35
2024-03-25T04:08:40.256Z,59.38
2024-03-25T04:11:07.607Z,59.60
2024-03-25T04:13:35.297Z,58.53
2024-03-25T04:16:04.066Z,57.96
2024-03-25T04:18:31.802Z,58.23
2024-03-25T04:20:59.280Z,58.93
2024-03-25T04:23:26.515Z,59.23
2024-03-25T04:25:54.059Z,59.27
2024-03-25T04:28:21.480Z,59.56
2024-03-25T04:30:52.211Z,58.47
2024-03-25T04:33:20.033Z,57.84
2024-03-25T04:35:48.234Z,58.49
2024-03-25T04:38:17.329Z,59.04
2024-03-25T04:40:45.091Z,59.97
2024-03-25T04:43:12.014Z,60.86
2024-03-25T04:45:38.904Z,60.70
2024-03-25T04:48:06.231Z,59.39
2024-03-25T04:50:33.188Z,58.43
2024-03-25T04:53:00.222Z,58.74
2024-03-25T04:55:27.051Z,59.53
2024-03-25T04:57:53.895Z,59.55
2024-03-25T05:00:20.935Z,60.08
2024-03-25T05:02:47.906Z,60.64
2024-03-25T05:05:15.042Z,59.07
2024-03-25T05:07:42.475Z,58.35
2024-03-25T05:10:09.648Z,57.95
2024-03-25T05:12:36.774Z,58.31
2024-03-25T05:15:04.061Z,58.71
2024-03-25T05:17:31.414Z,59.70
2024-03-25T05:19:58.431Z,60.02
2024-03-25T05:22:25.475Z,59.04
2024-03-25T05:24:52.307Z,58.72
2024-03-25T05:27:19.186Z,58.25
2024-03-25T05:29:46.095Z,58.36
2024-03-25T05:32:12.947Z,58.37
2024-03-25T05:34:39.931Z,59.02
2024-03-25T05:37:08.736Z,59.15
2024-03-25T05:39:36.326Z,58.47
2024-03-25T05:42:03.410Z,58.01
2024-03-25T05:44:30.472Z,58.09
2024-03-25T05:46:57.317Z,58.45
2024-03-25T05:49:24.312Z,58.93
2024-03-25T05:51:51.169Z,59.50
2024-03-25T05:54:18.094Z,59.35
2024-03-25T05:56:44.871Z,57.96
2024-03-25T05:59:11.730Z,56.95
2024-03-25T06:01:38.962Z,56.80
2024-03-25T06:04:05.817Z,57.74
2024-03-25T06:06:33.568Z,58.25
2024-03-25T06:09:00.510Z,58.63
2024-03-25T06:11:27.401Z,59.52
2024-03-25T06:13:54.302Z,59.51
2024-03-25T06:16:21.389Z,58.07
2024-03-25T06:18:48.581Z,57.40
2024-03-25T06:21:16.157Z,57.26
2024-03-25T06:23:43.219Z,57.44
2024-03-25T06:26:10.230Z,57.52
2024-03-25T06:28:37.286Z,57.43
2024-03-25T06:31:22.741Z,57.70
2024-03-25T06:34:12.043Z,57.96
2024-03-25T06:36:38.878Z,56.60
2024-03-25T06:39:05.800Z,56.07
2024-03-25T06:41:32.837Z,55.94
2024-03-25T06:43:59.944Z,56.62
2024-03-25T06:46:27.080Z,55.74
2024-03-25T06:48:54.001Z,56.28
2024-03-25T06:51:21.051Z,56.90
2024-03-25T06:53:48.604Z,57.93
2024-03-25T06:56:15.681Z,56.86
2024-03-25T06:58:42.819Z,55.21
2024-03-25T07:01:10.019Z,54.96
2024-03-25T07:03:36.832Z,55.20
2024-03-25T07:06:03.928Z,55.47
2024-03-25T07:08:34.592Z,55.67
2024-03-25T07:11:01.523Z,55.89
2024-03-25T07:13:28.485Z,55.42
2024-03-25T07:15:56.681Z,55.84
2024-03-25T07:18:24.292Z,56.41
2024-03-25T07:20:51.067Z,56.12
2024-03-25T07:23:18.410Z,53.95
2024-03-25T07:25:45.454Z,53.27
2024-03-25T07:28:12.599Z,53.06
2024-03-25T07:30:39.647Z,52.96
2024-03-25T07:33:06.906Z,53.76
2024-03-25T07:35:36.518Z,54.69
2024-03-25T07:38:04.361Z,54.88
2024-03-25T07:40:31.560Z,54.30
2024-03-25T07:42:58.463Z,54.11
2024-03-25T07:45:25.434Z,54.33
2024-03-25T07:47:53.727Z,54.59
2024-03-25T07:50:21.139Z,52.17
2024-03-25T07:52:48.055Z,49.59
2024-03-25T07:55:16.130Z,48.60
2024-03-25T07:57:43.082Z,48.33
2024-03-25T08:00:11.059Z,47.73
2024-03-25T08:02:41.304Z,45.74
2024-03-25T08:05:09.731Z,45.57
2024-03-25T08:07:36.897Z,45.11
2024-03-25T08:10:05.079Z,42.58
2024-03-25T08:12:32.479Z,40.85
2024-03-25T08:14:59.986Z,40.76
2024-03-25T08:17:27.370Z,40.44
2024-03-25T08:19:54.427Z,40.24
2024-03-25T08:22:21.304Z,39.28
2024-03-25T08:24:48.313Z,39.20
2024-03-25T08:27:16.297Z,38.12
2024-03-25T08:29:43.227Z,38.31
2024-03-25T08:32:10.228Z,38.25
2024-03-25T08:34:37.440Z,37.30
2024-03-25T08:37:05.297Z,36.91
2024-03-25T08:39:32.325Z,36.22
2024-03-25T08:41:59.378Z,37.52
2024-03-25T08:44:26.637Z,36.50
2024-03-25T08:46:53.568Z,35.93
2024-03-25T08:49:20.723Z,35.25
2024-03-25T08:51:48.350Z,34.73
2024-03-25T08:54:15.394Z,32.60
2024-03-25T08:56:42.518Z,31.03
2024-03-25T08:59:10.885Z,27.84
2024-03-25T09:01:38.089Z,30.37
2024-03-25T09:04:10.394Z,31.91
2024-03-25T09:06:38.855Z,29.98
2024-03-25T09:09:24.440Z,30.26
2024-03-25T09:11:51.184Z,30.23
2024-03-25T09:14:18.222Z,31.34
2024-03-25T09:16:45.375Z,30.78
2024-03-25T09:19:12.448Z,29.36
2024-03-25T09:21:39.459Z,28.84
2024-03-25T09:24:06.834Z,28.70
2024-03-25T09:26:34.166Z,28.54
2024-03-25T09:29:01.831Z,29.57
2024-03-25T09:31:29.443Z,29.37
2024-03-25T09:33:56.473Z,28.75
2024-03-25T09:36:23.507Z,27.99
2024-03-25T09:38:52.167Z,27.80
2024-03-25T09:41:19.131Z,27.01
2024-03-25T09:43:51.063Z,26.88
2024-03-25T09:46:18.273Z,26.96
2024-03-25T09:48:45.618Z,27.43
2024-03-25T09:51:12.507Z,25.39
2024-03-25T09:53:39.719Z,25.92
2024-03-25T09:56:06.926Z,25.20
2024-03-25T09:58:35.206Z,26.74
2024-03-25T10:01:04.536Z,27.00
2024-03-25T10:03:31.853Z,26.43
2024-03-25T10:05:58.815Z,26.79
2024-03-25T10:08:27.473Z,24.66
2024-03-25T10:10:56.708Z,23.20
2024-03-25T10:13:25.898Z,24.49
2024-03-25T10:15:53.071Z,24.16
2024-03-25T10:18:20.048Z,25.11
2024-03-25T10:20:52.997Z,24.64
2024-03-25T10:23:24.025Z,23.15
2024-03-25T10:25:53.006Z,24.61
2024-03-25T10:28:19.963Z,23.45
2024-03-25T10:30:47.111Z,24.40
2024-03-25T10:33:14.315Z,23.03
2024-03-25T10:35:41.477Z,22.71
2024-03-25T10:38:11.875Z,23.06
2024-03-25T10:40:39.766Z,24.32
2024-03-25T10:43:14.591Z,23.15
2024-03-25T10:45:42.280Z,22.26
2024-03-25T10:48:16.108Z,24.48
2024-03-25T10:50:44.261Z,22.32
2024-03-25T10:53:15.643Z,25.04
2024-03-25T10:55:42.701Z,25.17
2024-03-25T10:58:09.784Z,25.26
2024-03-25T11:00:37.576Z,23.70
2024-03-25T11:03:04.925Z,24.91
2024-03-25T11:05:32.085Z,26.17
2024-03-25T11:08:00.028Z,26.06
2024-03-25T11:10:30.680Z,26.29
2024-03-25T11:12:57.734Z,28.07
2024-03-25T11:15:24.740Z,27.98
2024-03-25T11:17:52.136Z,28.26
2024-03-25T11:20:19.222Z,29.69
2024-03-25T11:22:52.690Z,29.22
2024-03-25T11:25:21.739Z,29.19
2024-03-25T11:27:48.719Z,30.90
2024-03-25T11:30:15.943Z,31.40
2024-03-25T11:32:55.724Z,32.56
2024-03-25T11:35:22.747Z,32.24
2024-03-25T11:37:51.315Z,29.98
2024-03-25T11:40:18.391Z,28.29
2024-03-25T11:42:45.946Z,29.05
2024-03-25T11:45:19.656Z,28.01
2024-03-25T11:47:47.821Z,27.80
2024-03-25T11:50:16.195Z,29.96
2024-03-25T11:52:43.352Z,28.54
2024-03-25T11:55:10.979Z,26.76
2024-03-25T11:57:38.053Z,26.37
2024-03-25T12:00:11.652Z,27.62
2024-03-25T12:02:45.560Z,27.20
2024-03-25T12:05:14.685Z,27.44
2024-03-25T12:07:41.674Z,26.33
2024-03-25T12:10:27.707Z,26.51
2024-03-25T12:12:55.022Z,26.41
2024-03-25T12:15:22.646Z,26.62
2024-03-25T12:17:49.755Z,27.85
2024-03-25T12:20:18.357Z,27.42
2024-03-25T12:22:45.567Z,27.50
2024-03-25T12:25:12.535Z,26.87
2024-03-25T12:27:40.482Z,26.69
2024-03-25T12:30:11.051Z,27.04
2024-03-25T12:32:45.746Z,25.49
2024-03-25T12:35:14.375Z,25.95
2024-03-25T12:37:42.038Z,26.23
2024-03-25T12:40:11.787Z,26.40
2024-03-25T12:42:40.007Z,26.53
2024-03-25T12:48:17.509Z,27.61
2024-03-25T12:50:44.433Z,28.13
2024-03-25T12:53:11.981Z,28.34
2024-03-25T12:55:38.913Z,28.11
2024-03-25T12:58:05.793Z,28.60
2024-03-25T13:00:32.707Z,29.33
2024-03-25T13:02:59.756Z,29.17
2024-03-25T13:05:26.628Z,28.82
2024-03-25T13:07:53.782Z,29.57
2024-03-25T13:10:21.013Z,30.36
2024-03-25T13:12:48.064Z,30.41
2024-03-25T13:15:15.120Z,29.94
2024-03-25T13:17:42.196Z,30.32
2024-03-25T13:20:09.599Z,30.31
2024-03-25T13:22:36.700Z,29.31
2024-03-25T13:25:03.656Z,30.25
2024-03-25T13:27:30.904Z,29.87
2024-03-25T13:29:57.908Z,29.62
2024-03-25T13:32:24.759Z,29.74
2024-03-25T13:34:52.118Z,30.10
2024-03-25T13:37:19.156Z,29.97
2024-03-25T13:39:47.177Z,32.93
2024-03-25T13:42:13.949Z,30.80
2024-03-25T13:44:41.303Z,30.96
2024-03-25T13:47:08.749Z,31.11
2024-03-25T13:49:35.714Z,31.46
2024-03-25T13:52:04.894Z,32.57
2024-03-25T13:54:32.036Z,32.39
2024-03-25T13:56:58.904Z,32.46
2024-03-25T13:59:26.345Z,31.81
2024-03-25T14:01:54.965Z,32.51
2024-03-25T14:04:22.004Z,32.10
2024-03-25T14:06:50.572Z,32.08
2024-03-25T14:09:26.973Z,32.86
2024-03-25T14:11:53.890Z,32.74
2024-03-25T14:14:20.827Z,33.41
2024-03-25T14:16:49.065Z,33.93
2024-03-25T14:19:16.361Z,34.35
2024-03-25T14:21:43.283Z,33.61
2024-03-25T14:24:10.618Z,32.91
2024-03-25T14:26:38.017Z,32.53
2024-03-25T14:29:05.034Z,33.56
2024-03-25T14:31:32.187Z,33.01
2024-03-25T14:33:59.758Z,32.28
2024-03-25T14:36:26.782Z,32.63
2024-03-25T14:38:53.836Z,32.84
2024-03-25T14:41:21.345Z,32.08
2024-03-25T14:43:49.623Z,30.98
2024-03-25T14:46:16.447Z,31.89
2024-03-25T14:48:43.384Z,32.33
2024-03-25T14:51:10.430Z,32.61
2024-03-25T14:53:37.373Z,33.27
2024-03-25T14:56:05.906Z,35.04
2024-03-25T14:58:33.509Z,34.85
2024-03-25T15:01:00.401Z,34.50
2024-03-25T15:03:27.802Z,35.53
2024-03-25T15:05:54.759Z,34.42
2024-03-25T15:08:21.718Z,34.44
2024-03-25T15:10:48.829Z,34.33
2024-03-25T15:13:15.723Z,34.65
2024-03-25T15:15:44.271Z,34.61
2024-03-25T15:18:11.146Z,34.80
2024-03-25T15:20:38.248Z,34.95
2024-03-25T15:23:05.306Z,34.90
2024-03-25T15:25:32.395Z,34.99
2024-03-25T15:27:59.304Z,35.45
2024-03-25T15:30:26.259Z,35.85
2024-03-25T15:32:53.264Z,35.39
2024-03-25T15:35:20.334Z,35.46
2024-03-25T15:37:47.195Z,35.52
2024-03-25T15:40:19.321Z,36.61
2024-03-25T15:42:46.303Z,37.65
2024-03-25T15:45:13.396Z,37.18
2024-03-25T15:47:41.553Z,37.03
2024-03-25T15:50:09.482Z,37.32
2024-03-25T15:52:36.835Z,37.46
2024-03-25T15:55:04.307Z,37.58
2024-03-25T15:57:31.641Z,38.11
2024-03-25T15:59:58.740Z,38.64
2024-03-25T16:02:26.404Z,39.19
2024-03-25T16:04:53.207Z,39.93
2024-03-25T16:07:20.336Z,40.18
2024-03-25T16:09:47.725Z,40.33
2024-03-25T16:12:14.658Z,40.52
2024-03-25T16:14:44.849Z,41.50
2024-03-25T16:17:12.008Z,41.83
2024-03-25T16:19:39.262Z,42.65
2024-03-25T16:22:07.379Z,43.52
2024-03-25T16:24:34.337Z,43.13
2024-03-25T16:27:01.255Z,43.81
2024-03-25T16:29:28.307Z,43.72
2024-03-25T16:31:55.601Z,44.51
2024-03-25T16:34:23.189Z,44.43
2024-03-25T16:36:50.385Z,44.83
2024-03-25T16:39:17.278Z,44.92
2024-03-25T16:41:44.262Z,44.73
2024-03-25T16:44:11.287Z,45.22
2024-03-25T16:46:38.928Z,45.66
2024-03-25T16:49:05.780Z,45.95
2024-03-25T16:51:32.955Z,46.51
2024-03-25T16:53:59.778Z,46.91
2024-03-25T16:56:29.036Z,47.06
2024-03-25T16:58:55.935Z,47.27
2024-03-25T17:01:22.802Z,47.55
2024-03-25T17:03:51.999Z,47.88
2024-03-25T17:06:18.901Z,48.22
2024-03-25T17:08:45.813Z,48.89
2024-03-25T17:11:13.110Z,48.52
2024-03-25T17:13:39.978Z,48.72
2024-03-25T17:16:07.363Z,48.85
2024-03-25T17:18:34.590Z,49.30
2024-03-25T17:21:01.612Z,49.79
2024-03-25T17:23:28.679Z,49.79
2024-03-25T17:25:55.675Z,49.53
2024-03-25T17:28:22.513Z,49.91
2024-03-25T17:30:49.412Z,49.56
2024-03-25T17:33:16.827Z,49.88
2024-03-25T17:35:43.686Z,50.68
2024-03-25T17:38:10.584Z,51.22
2024-03-25T17:40:38.714Z,51.15
2024-03-25T17:43:05.805Z,51.34
2024-03-25T17:45:32.883Z,50.87
2024-03-25T17:49:31.999Z,52.52
2024-03-25T17:51:58.819Z,52.05
2024-03-25T17:54:26.364Z,51.44
2024-03-25T17:56:53.219Z,52.24
2024-03-25T17:59:20.678Z,52.02
2024-03-25T18:01:47.644Z,52.48
2024-03-25T18:04:14.909Z,52.36
2024-03-25T18:06:41.718Z,52.42
2024-03-25T18:09:09.676Z,52.74
2024-03-25T18:11:36.923Z,53.29
2024-03-25T18:14:03.992Z,54.02
2024-03-25T18:16:31.220Z,53.53
2024-03-25T18:18:58.285Z,52.08
2024-03-25T18:21:25.311Z,51.06
2024-03-25T18:23:57.239Z,50.48
2024-03-25T18:26:24.736Z,51.16
2024-03-25T18:28:51.772Z,51.51
2024-03-25T18:31:18.820Z,51.67
2024-03-25T18:33:45.604Z,52.24
2024-03-25T18:36:13.026Z,52.61
2024-03-25T18:38:40.193Z,52.46
2024-03-25T18:41:07.251Z,52.20
2024-03-25T18:43:35.022Z,52.45
2024-03-25T18:46:01.950Z,53.73
2024-03-25T18:48:29.115Z,54.41
2024-03-25T18:50:56.197Z,53.51
2024-03-25T18:53:23.199Z,53.62
2024-03-25T18:55:50.034Z,54.19
2024-03-25T18:58:17.095Z,54.65
2024-03-25T19:00:44.034Z,54.76
2024-03-25T19:03:11.075Z,53.02
2024-03-25T19:05:38.212Z,52.16
2024-03-25T19:08:05.342Z,51.99
2024-03-25T19:10:32.560Z,52.72
2024-03-25T19:12:59.762Z,53.31
2024-03-25T19:15:26.657Z,53.24
2024-03-25T19:17:53.759Z,53.50
2024-03-25T19:20:20.620Z,53.97
2024-03-25T19:22:50.554Z,53.41
2024-03-25T19:25:18.632Z,53.06
2024-03-25T19:27:45.619Z,52.94
2024-03-25T19:30:12.921Z,53.42
2024-03-25T19:32:40.048Z,53.42
2024-03-25T19:35:07.094Z,54.69
2024-03-25T19:37:34.246Z,54.48
2024-03-25T19:40:01.224Z,54.84
2024-03-25T19:42:28.167Z,53.35
2024-03-25T19:44:55.106Z,53.22
2024-03-25T19:47:22.042Z,53.06
2024-03-25T19:49:48.971Z,52.79
2024-03-25T19:52:16.001Z,53.34
2024-03-25T19:54:42.998Z,53.44
2024-03-25T19:57:11.239Z,53.78
2024-03-25T19:59:38.185Z,54.14
2024-03-25T20:02:05.232Z,54.34
2024-03-25T20:04:32.339Z,54.48
2024-03-25T20:06:59.916Z,55.01
2024-03-25T20:09:26.759Z,55.90
2024-03-25T20:11:53.824Z,55.74
2024-03-25T20:14:21.778Z,54.68
2024-03-25T20:16:48.836Z,53.99
2024-03-25T20:19:15.983Z,53.84
2024-03-25T20:21:44.518Z,54.09
2024-03-25T20:24:11.528Z,54.11
2024-03-25T20:26:38.580Z,53.85
2024-03-25T20:29:05.930Z,54.26
2024-03-25T20:31:32.810Z,54.70
2024-03-25T20:33:59.825Z,55.82
2024-03-25T20:36:26.941Z,56.50
2024-03-25T20:38:53.990Z,56.73
2024-03-25T20:41:20.833Z,55.33
2024-03-25T20:43:48.923Z,54.74
2024-03-25T20:46:17.103Z,54.29
2024-03-25T20:48:43.929Z,54.83
2024-03-25T20:51:10.697Z,54.69
2024-03-25T20:53:37.608Z,54.48
2024-03-25T20:56:05.676Z,54.63
2024-03-25T20:58:32.857Z,55.22
2024-03-25T21:00:59.775Z,55.31
2024-03-25T21:03:26.618Z,55.47
2024-03-25T21:05:59.840Z,55.80
2024-03-25T21:08:26.678Z,56.22
2024-03-25T21:10:53.506Z,56.00
2024-03-25T21:13:20.344Z,54.43
2024-03-25T21:15:47.165Z,53.64
2024-03-25T21:18:14.218Z,53.31
2024-03-25T21:20:41.281Z,53.83
2024-03-25T21:23:08.020Z,54.12
2024-03-25T21:25:35.061Z,54.43
2024-03-25T21:28:03.694Z,55.09
2024-03-25T21:30:31.557Z,54.90
2024-03-25T21:32:58.556Z,55.06
2024-03-25T21:35:25.406Z,55.13
2024-03-25T21:37:52.466Z,55.71
2024-03-25T21:40:19.280Z,56.11
2024-03-25T21:42:46.312Z,54.90
2024-03-25T21:45:13.186Z,54.09
2024-03-25T21:47:40.532Z,53.47
2024-03-25T21:50:07.579Z,52.26
2024-03-25T21:52:34.503Z,52.80
2024-03-25T21:55:01.552Z,53.92
2024-03-25T21:57:28.734Z,54.57
2024-03-25T21:59:55.673Z,54.89
2024-03-25T22:02:22.709Z,55.78
2024-03-25T22:04:49.773Z,57.94
2024-03-25T22:07:16.693Z,58.04
2024-03-25T22:09:43.636Z,56.57
2024-03-25T22:12:10.597Z,56.08
2024-03-25T22:14:37.834Z,56.19
2024-03-25T22:17:04.786Z,56.38
2024-03-25T22:19:31.939Z,56.86
2024-03-25T22:21:59.719Z,56.90
2024-03-25T22:24:26.591Z,57.59
2024-03-25T22:26:53.598Z,58.08
2024-03-25T22:29:20.542Z,58.61
2024-03-25T22:31:48.016Z,58.59
2024-03-25T22:34:14.961Z,57.02
2024-03-25T22:36:41.782Z,56.35
2024-03-25T22:39:09.826Z,56.38
2024-03-25T22:41:36.864Z,56.28
2024-03-25T22:44:03.775Z,56.86
2024-03-25T22:46:30.922Z,57.29
2024-03-25T22:48:57.849Z,57.99
2024-03-25T22:51:24.727Z,57.83
2024-03-25T22:53:51.714Z,58.58
2024-03-25T22:56:18.680Z,58.90
2024-03-25T22:58:45.923Z,57.64
2024-03-25T23:01:12.780Z,56.89
2024-03-25T23:03:39.751Z,56.56
2024-03-25T23:06:07.211Z,57.08
2024-03-25T23:08:34.152Z,57.79
2024-03-25T23:11:01.505Z,58.29
2024-03-25T23:13:28.712Z,58.69
2024-03-25T23:15:55.780Z,59.00
2024-03-25T23:18:22.640Z,59.21
2024-03-25T23:20:50.711Z,57.45
2024-03-25T23:23:17.832Z,56.95
2024-03-25T23:25:45.674Z,56.74
2024-03-25T23:28:13.878Z,57.07
2024-03-25T23:30:41.359Z,57.54
2024-03-25T23:33:08.363Z,58.16
2024-03-25T23:35:35.725Z,58.44
2024-03-25T23:38:02.844Z,59.24
2024-03-25T23:40:29.938Z,59.66
2024-03-25T23:42:57.076Z,58.64
2024-03-25T23:45:24.216Z,58.39
2024-03-25T23:47:51.278Z,58.31
2024-03-25T23:50:18.521Z,58.67
2024-03-25T23:52:45.669Z,58.54
2024-03-25T23:55:12.626Z,58.61
2024-03-25T23:57:39.556Z,58.84
